This demonstration page uses our WeatherBlox Daily Observations layout. Learn more.

38.89511, -77.03637

Hourly Observations for September 22, 2017

Temp ( °F °C ) Dew Point ( °F °C ) Humidity (%) Winds ( mph kmh ) Pressure ( in mb ) Visibility ( mi km ) Precip ( " mm )
12:52 am 00:52 Cloudy 74 23.3 68 20 82 82 Calm 30.03 1017 10 16.09344 0 0
1:52 am 01:52 Cloudy 74 23.3 68 20 82 82 Calm 30.03 1017 10 16.09344 0 0
2:52 am 02:52 Cloudy 73 22.8 67 19.4 81 81 NNW 7 11 30 1016 10 16.09344 0 0
3:52 am 03:52 Cloudy 72 22.2 66 18.9 82 82 NNW 8 13 30 1016 10 16.09344 0 0
4:52 am 04:52 Cloudy 72 22.2 66 18.9 82 82 NNW 7 11 30 1016 10 16.09344 0 0
5:52 am 05:52 Cloudy 70 21.1 66 18.9 87 87 NNW 7 11 30.03 1017 10 16.09344 0 0
6:52 am 06:52 Cloudy 71 21.7 66 18.9 84 84 NNW 7 11 30.03 1017 10 16.09344 0 0
7:52 am 07:52 Cloudy 72 22.2 66 18.9 82 82 NNW 7 11 30.06 1018 10 16.09344 0 0
8:52 am 08:52 Cloudy 73 22.8 66 18.9 79 79 NNW 6 9 30.06 1018 10 16.09344 0 0
9:52 am 09:52 Mostly Cloudy 75 23.9 67 19.4 76 76 NNW 5 7 30.06 1018 10 16.09344 0 0
10:52 am 10:52 Mostly Cloudy 80 26.7 65 18.3 60 60 N 3 6 30.06 1018 10 16.09344 0 0
11:52 am 11:52 Sunny 80 26.7 65 18.3 60 60 E 5 7 30.06 1018 10 16.09344 0 0
12:52 pm 12:52 Mostly Cloudy 80 26.7 65 18.3 60 60 Calm 30.03 1017 10 16.09344 0 0
1:52 pm 13:52 Cloudy 83 28.3 67 19.4 59 59 NW 10 17 30.03 1017 10 16.09344 0 0
2:52 pm 14:52 Cloudy 83 28.3 66 18.9 57 57 NW 10 17 30 1016 10 16.09344 0 0
3:52 pm 15:52 Cloudy 82 27.8 65 18.3 56 56 N 10 17 30 1016 10 16.09344 0 0
4:52 pm 16:52 Cloudy 82 27.8 65 18.3 56 56 WNW 10 17 29.97 1015 10 16.09344 0 0
5:52 pm 17:52 Cloudy 81 27.2 66 18.9 61 61 NW 10 17 29.97 1015 10 16.09344 0 0
6:52 pm 18:52 Cloudy 79 26.1 67 19.4 67 67 N 6 9 29.97 1015 10 16.09344 0 0
7:52 pm 19:52 Mostly Cloudy 80 26.7 67 19.4 64 64 N 3 6 29.97 1015 10 16.09344 0 0
8:52 pm 20:52 Cloudy 75 23.9 69 20.6 82 82 Calm 30 1016 10 16.09344 0 0
9:52 pm 21:52 Mostly Cloudy 76 24.4 71 21.7 85 85 Calm 30 1016 10 16.09344 0 0
10:52 pm 22:52 Cloudy 74 23.3 68 20 82 82 Calm 30 1016 10 16.09344 0 0
11:52 pm 23:52 Mostly Cloudy 73 22.8 67 19.4 81 81 Calm 30 1016 10 16.09344 0 0

Powered by AerisWeather